Time;durP1;ratioP1;P1;durP2;ratioP2;P2;SDS_P1;SDS_P2;PMS_P1;PMS_P2;Temp;Humidity;BMP_temperature;BMP_pressure;BME280_temperature;BME280_humidity;BME280_pressure;Samples;Min_cycle;Max_cycle;Signal;HPM_P1;HPM_P2
2022/06/26 00:00:43;;;;;;;15.43;14.10;;;;;;;17.21;90.93;101116.03;5047219;28;20383;-66
2022/06/26 00:03:09;;;;;;;17.35;15.70;;;;;;;17.06;92.08;101108.94;5039925;28;20045;-67
2022/06/26 00:05:35;;;;;;;16.63;15.13;;;;;;;17.18;91.42;101121.56;5027955;28;20484;-67
2022/06/26 00:08:00;;;;;;;15.45;14.05;;;;;;;17.23;91.35;101135.03;5040739;28;20748;-66
2022/06/26 00:10:26;;;;;;;16.35;14.75;;;;;;;17.17;92.41;101130.41;5046858;28;20472;-66
2022/06/26 00:12:51;;;;;;;15.90;14.45;;;;;;;17.14;91.57;101128.09;5032368;28;20346;-67
2022/06/26 00:15:17;;;;;;;16.60;15.18;;;;;;;17.20;91.29;101124.03;5046981;28;20112;-67
2022/06/26 00:17:43;;;;;;;17.30;15.63;;;;;;;17.24;91.66;101133.22;5047112;28;20020;-67
2022/06/26 00:20:09;;;;;;;17.10;15.57;;;;;;;17.26;91.44;101128.63;5044301;28;20145;-67
2022/06/26 00:22:34;;;;;;;17.00;15.50;;;;;;;17.27;91.38;101130.28;5042003;28;20119;-68
2022/06/26 00:25:00;;;;;;;17.80;16.20;;;;;;;17.22;91.43;101135.19;5044659;28;20552;-66
2022/06/26 00:27:25;;;;;;;19.63;17.95;;;;;;;17.16;92.08;101134.03;5042382;28;20048;-66
2022/06/26 00:29:51;;;;;;;19.65;17.90;;;;;;;17.18;91.89;101126.00;5039096;28;20047;-67
2022/06/26 00:32:16;;;;;;;19.75;17.95;;;;;;;17.27;91.18;101139.94;5046863;28;20029;-66
2022/06/26 00:34:42;;;;;;;20.77;18.92;;;;;;;17.17;92.50;101140.09;5045823;28;20473;-67
2022/06/26 00:37:07;;;;;;;19.63;17.98;;;;;;;17.21;92.07;101151.91;5042122;28;20082;-66
2022/06/26 00:39:32;;;;;;;19.85;18.15;;;;;;;17.22;92.02;101143.06;5029235;28;20144;-66
2022/06/26 00:41:58;;;;;;;20.13;18.27;;;;;;;17.13;92.11;101149.25;5033422;28;20030;-68
2022/06/26 00:44:25;;;;;;;20.50;18.67;;;;;;;17.14;91.98;101148.25;5037875;28;20111;-67
2022/06/26 00:46:51;;;;;;;20.20;18.40;;;;;;;17.15;92.74;101152.53;5036414;28;20351;-67
2022/06/26 00:49:17;;;;;;;19.83;18.13;;;;;;;17.17;92.26;101155.81;5042897;28;20139;-66
2022/06/26 00:51:53;;;;;;;19.95;18.20;;;;;;;17.13;92.20;101154.47;5037069;28;20032;-67
2022/06/26 00:54:20;;;;;;;19.15;17.55;;;;;;;17.19;92.30;101180.06;5045801;28;20051;-67
2022/06/26 00:56:47;;;;;;;18.83;17.13;;;;;;;17.21;92.19;101188.59;5043849;28;20043;-67
2022/06/26 00:59:13;;;;;;;19.27;17.65;;;;;;;17.21;92.32;101184.19;5045789;28;20025;-66
2022/06/26 01:01:39;;;;;;;18.33;16.73;;;;;;;17.14;92.15;101182.31;5045265;28;20059;-67
2022/06/26 01:04:05;;;;;;;17.30;15.70;;;;;;;17.23;91.54;101186.63;5044975;28;20072;-67
2022/06/26 01:06:31;;;;;;;18.63;17.02;;;;;;;17.17;92.03;101187.25;5042353;28;20021;-67
2022/06/26 01:08:57;;;;;;;18.35;16.75;;;;;;;17.19;91.48;101185.28;5046120;28;20031;-67
2022/06/26 01:11:26;;;;;;;19.33;17.52;;;;;;;17.07;91.91;101176.09;5030353;28;20033;-67
2022/06/26 01:13:54;;;;;;;17.92;16.33;;;;;;;17.14;91.78;101187.56;5040783;28;20031;-67
2022/06/26 01:16:21;;;;;;;18.65;17.00;;;;;;;17.10;91.56;101186.28;5027359;28;20382;-67
2022/06/26 01:18:49;;;;;;;18.42;16.83;;;;;;;17.13;91.69;101191.19;5041462;28;20033;-67
2022/06/26 01:21:16;;;;;;;18.63;16.92;;;;;;;17.13;91.63;101191.19;5045921;28;20040;-67
2022/06/26 01:23:42;;;;;;;18.60;17.10;;;;;;;16.95;92.26;101194.72;5044324;28;20465;-67
2022/06/26 01:26:07;;;;;;;18.52;16.90;;;;;;;16.90;93.56;101190.94;5045555;28;20039;-67
2022/06/26 01:28:32;;;;;;;18.60;17.05;;;;;;;16.81;93.76;101184.84;5043856;28;20052;-68
2022/06/26 01:30:58;;;;;;;18.52;17.02;;;;;;;16.96;92.68;101185.88;5045300;28;20555;-67
2022/06/26 01:33:23;;;;;;;17.90;16.50;;;;;;;16.97;92.93;101200.66;5037703;28;20020;-66
2022/06/26 01:35:50;;;;;;;18.08;16.48;;;;;;;17.03;92.92;101200.97;5043961;28;20083;-67
2022/06/26 01:38:18;;;;;;;17.50;15.90;;;;;;;16.98;93.34;101204.91;5045431;28;20033;-67
2022/06/26 01:40:44;;;;;;;;;;;;;;;17.20;91.83;101202.66;5044527;28;20032;-67
2022/06/26 01:43:11;;;;;;;15.52;14.05;;;;;;;16.81;92.80;101186.66;5045464;28;19908;-66
2022/06/26 01:45:44;;;;;;;14.50;13.20;;;;;;;16.82;93.61;101196.97;5042784;28;20025;-67
2022/06/26 01:48:10;;;;;;;15.00;13.60;;;;;;;16.82;93.19;101207.44;5041705;28;20025;-67
2022/06/26 01:50:36;;;;;;;15.00;13.70;;;;;;;16.82;93.64;101204.81;5040240;28;20029;-67
2022/06/26 01:53:02;;;;;;;14.93;13.63;;;;;;;16.81;92.76;101197.94;5043591;28;20476;-67
2022/06/26 01:55:28;;;;;;;16.70;15.15;;;;;;;16.77;93.42;101186.13;5043862;28;20090;-67
2022/06/26 01:57:53;;;;;;;16.70;15.23;;;;;;;16.75;93.56;101198.56;5039371;28;20397;-67
2022/06/26 02:00:18;;;;;;;18.13;16.48;;;;;;;16.78;93.47;101200.88;5044146;28;20032;-67
2022/06/26 02:02:44;;;;;;;17.17;15.68;;;;;;;16.77;93.59;101196.59;5043172;28;20374;-69
2022/06/26 02:05:09;;;;;;;17.75;16.00;;;;;;;16.75;93.83;101203.81;5040157;28;20115;-67
2022/06/26 02:07:34;;;;;;;16.35;14.85;;;;;;;16.80;93.61;101195.47;5040104;28;20032;-68
2022/06/26 02:15:28;;;;;;;15.15;13.75;;;;;;;16.67;93.46;101186.19;5037730;28;20444;-68
2022/06/26 02:17:54;;;;;;;16.92;15.52;;;;;;;16.58;93.36;101183.72;5041799;28;20064;-67
2022/06/26 02:20:20;;;;;;;18.17;16.55;;;;;;;16.58;93.45;101181.91;5044067;28;20036;-67
2022/06/26 02:22:45;;;;;;;18.60;16.90;;;;;;;16.59;93.54;101167.03;5043855;22;20050;-67
2022/06/26 02:25:10;;;;;;;19.92;18.02;;;;;;;16.59;93.21;101173.06;5025746;28;20030;-67
2022/06/26 02:27:36;;;;;;;20.85;19.00;;;;;;;16.53;93.72;101162.41;5023881;28;20029;-67
2022/06/26 02:30:01;;;;;;;22.60;20.70;;;;;;;16.56;93.63;101162.09;5024436;28;20346;-67
2022/06/26 02:32:27;;;;;;;26.25;23.95;;;;;;;16.51;92.63;101148.63;5025161;28;20129;-67
2022/06/26 02:34:52;;;;;;;26.88;24.58;;;;;;;16.48;92.29;101154.19;5021726;28;20056;-67
2022/06/26 02:37:18;;;;;;;27.17;24.73;;;;;;;16.44;92.60;101140.59;5017513;28;20120;-67
2022/06/26 02:39:43;;;;;;;27.95;25.35;;;;;;;16.29;92.88;101153.44;5023932;28;20396;-67
2022/06/26 02:42:08;;;;;;;29.25;26.50;;;;;;;16.41;92.29;101167.91;5018045;28;20018;-68
2022/06/26 02:44:34;;;;;;;29.08;26.55;;;;;;;16.25;92.66;101149.47;5023357;28;20025;-67
2022/06/26 02:47:00;;;;;;;29.55;26.92;;;;;;;16.41;92.64;101169.72;5022281;28;20022;-67
2022/06/26 02:49:25;;;;;;;29.77;27.08;;;;;;;16.42;92.52;101182.63;5023397;28;20037;-67
2022/06/26 02:51:51;;;;;;;30.35;27.55;;;;;;;16.39;92.26;101172.47;5010500;28;20041;-67
2022/06/26 02:54:16;;;;;;;29.27;26.67;;;;;;;16.33;91.97;101180.94;5017276;28;20125;-68
2022/06/26 02:56:42;;;;;;;30.55;27.65;;;;;;;16.20;92.99;101177.91;5018594;28;20025;-67
2022/06/26 02:59:07;;;;;;;29.63;27.02;;;;;;;16.24;92.66;101188.91;5014447;28;20057;-67
2022/06/26 03:01:32;;;;;;;30.05;27.45;;;;;;;16.35;92.38;101192.09;5023028;28;20067;-68
2022/06/26 03:03:58;;;;;;;30.15;27.45;;;;;;;16.38;92.36;101191.75;5022262;28;20057;-69
2022/06/26 03:06:23;;;;;;;29.40;26.63;;;;;;;16.31;92.50;101195.97;5018791;28;20425;-68
2022/06/26 03:08:48;;;;;;;29.75;27.05;;;;;;;16.33;92.81;101209.72;5018909;28;20040;-70
2022/06/26 03:11:14;;;;;;;30.35;27.50;;;;;;;16.23;92.65;101187.25;5010436;28;20052;-67
2022/06/26 03:13:39;;;;;;;30.52;27.63;;;;;;;16.26;92.43;101192.19;5025288;28;20029;-67
2022/06/26 03:16:05;;;;;;;30.80;28.02;;;;;;;16.28;92.96;101208.53;5021783;28;20018;-69
2022/06/26 03:18:30;;;;;;;31.67;28.73;;;;;;;16.24;92.49;101221.13;5026383;28;20193;-68
2022/06/26 03:20:56;;;;;;;31.98;29.08;;;;;;;16.22;92.31;101196.88;5023166;28;20021;-68
2022/06/26 03:24:00;;;;;;;32.00;29.00;;;;;;;16.25;92.88;101212.28;5020129;28;20458;-68
2022/06/26 03:26:07;;;;;;;31.48;28.63;;;;;;;16.27;92.40;101226.03;5027691;28;20048;-68
2022/06/26 03:28:32;;;;;;;31.40;28.35;;;;;;;16.18;92.60;101216.50;5017063;28;20029;-67
2022/06/26 03:30:58;;;;;;;30.00;27.30;;;;;;;16.16;92.07;101213.19;5027117;28;20033;-67
2022/06/26 03:33:23;;;;;;;31.95;28.88;;;;;;;16.12;91.76;101228.41;5017335;28;20026;-68
2022/06/26 03:35:48;;;;;;;31.30;28.45;;;;;;;16.08;92.24;101223.63;5026562;28;20461;-69
2022/06/26 03:38:15;;;;;;;30.88;27.92;;;;;;;16.00;91.85;101234.00;5018833;28;20449;-68
2022/06/26 03:40:40;;;;;;;29.80;26.92;;;;;;;15.87;91.57;101245.66;5027043;28;20545;-67
2022/06/26 03:43:09;;;;;;;28.50;25.80;;;;;;;15.95;91.55;101246.72;5026650;28;20094;-70
2022/06/26 03:45:35;;;;;;;27.98;25.38;;;;;;;15.81;91.36;101241.03;5014802;28;20485;-67
2022/06/26 03:48:00;;;;;;;28.55;25.75;;;;;;;15.84;91.14;101245.97;5025938;28;20031;-67
2022/06/26 03:50:26;;;;;;;28.20;25.60;;;;;;;15.84;91.10;101245.97;5021580;28;20442;-68
2022/06/26 03:52:51;;;;;;;28.02;25.52;;;;;;;15.86;91.05;101249.25;5018140;28;20069;-67
2022/06/26 03:55:16;;;;;;;28.02;25.52;;;;;;;15.84;91.75;101261.66;5022008;28;20373;-67
2022/06/26 03:57:42;;;;;;;28.60;25.90;;;;;;;15.74;91.00;101273.97;5026488;28;20017;-67
2022/06/26 04:00:08;;;;;;;28.45;25.85;;;;;;;15.67;91.47;101275.56;5017873;28;20471;-67
2022/06/26 04:02:33;;;;;;;28.80;26.10;;;;;;;15.63;91.27;101279.41;5021525;28;20041;-68
2022/06/26 04:04:59;;;;;;;28.15;25.35;;;;;;;15.72;90.88;101289.00;5026865;28;20388;-67
2022/06/26 04:07:24;;;;;;;27.05;24.45;;;;;;;15.64;90.92;101291.53;5026865;28;20372;-69
2022/06/26 04:09:49;;;;;;;27.45;24.73;;;;;;;15.66;91.41;101284.38;5024075;28;20074;-68
2022/06/26 04:12:15;;;;;;;27.25;24.65;;;;;;;15.70;91.04;101284.88;5026921;28;20021;-67
2022/06/26 04:14:41;;;;;;;26.38;23.77;;;;;;;15.59;90.97;101283.25;5022042;28;20284;-67
2022/06/26 04:17:06;;;;;;;26.80;24.00;;;;;;;15.53;91.67;101283.84;5027014;28;20025;-68
2022/06/26 04:19:32;;;;;;;26.70;24.20;;;;;;;15.54;91.48;101275.88;5023784;28;20465;-67
2022/06/26 04:21:57;;;;;;;27.05;24.35;;;;;;;15.71;91.04;101282.13;5022949;28;20474;-68
2022/06/26 04:24:23;;;;;;;27.45;24.83;;;;;;;15.76;90.61;101272.03;5024967;28;20041;-68
2022/06/26 04:26:48;;;;;;;26.80;24.05;;;;;;;15.73;90.71;101264.50;5026017;28;20017;-67
2022/06/26 04:29:13;;;;;;;27.05;24.52;;;;;;;15.76;90.64;101264.19;5026584;28;20048;-68
2022/06/26 04:31:39;;;;;;;25.98;23.45;;;;;;;15.80;90.54;101265.53;5013821;28;20022;-67
2022/06/26 04:34:04;;;;;;;26.48;23.77;;;;;;;15.73;90.47;101258.44;5017144;28;20071;-67
2022/06/26 04:36:30;;;;;;;26.50;23.80;;;;;;;15.80;90.13;101281.25;5012014;28;20087;-72
2022/06/26 04:38:55;;;;;;;24.45;22.05;;;;;;;15.80;90.43;101281.25;5024582;28;20124;-68
2022/06/26 04:41:34;;;;;;;25.05;22.65;;;;;;;15.71;90.56;101282.13;5026544;28;20401;-67
2022/06/26 04:44:01;;;;;;;25.75;23.05;;;;;;;15.74;90.23;101286.25;5014908;28;20466;-67
2022/06/26 04:46:26;;;;;;;24.55;22.17;;;;;;;15.73;90.38;101302.91;5013724;28;20502;-68
2022/06/26 04:48:52;;;;;;;26.55;24.00;;;;;;;15.73;90.70;101306.34;5009761;28;20207;-67
2022/06/26 04:51:18;;;;;;;25.70;23.20;;;;;;;15.75;90.73;101307.00;5015952;28;20469;-67
2022/06/26 04:53:43;;;;;;;26.13;23.65;;;;;;;15.79;90.71;101313.59;5022749;28;20041;-70
2022/06/26 04:56:09;;;;;;;24.95;22.58;;;;;;;15.71;90.90;101318.72;5026045;28;20032;-69
2022/06/26 04:58:34;;;;;;;24.70;22.20;;;;;;;15.54;90.95;101327.31;5015008;28;20382;-68
2022/06/26 05:00:59;;;;;;;22.60;20.30;;;;;;;15.59;90.92;101327.72;5026437;28;20029;-67
2022/06/26 05:03:25;;;;;;;22.08;19.88;;;;;;;15.65;90.60;101340.22;5024445;28;20024;-70
2022/06/26 05:05:50;;;;;;;21.25;19.08;;;;;;;15.64;91.19;101344.63;5024975;28;20128;-67
2022/06/26 05:08:15;;;;;;;21.75;19.55;;;;;;;15.68;91.30;101344.38;5019462;28;20477;-69
2022/06/26 05:10:41;;;;;;;20.33;18.20;;;;;;;15.67;90.64;101327.84;5019577;28;20499;-67
2022/06/26 05:13:06;;;;;;;20.42;18.23;;;;;;;15.56;91.24;101341.09;5020287;28;20030;-67
2022/06/26 05:15:31;;;;;;;19.80;17.80;;;;;;;15.63;90.81;101337.75;5019675;28;20112;-67
2022/06/26 05:17:57;;;;;;;20.50;18.40;;;;;;;15.48;90.55;101312.22;5021638;28;20415;-67
2022/06/26 05:20:22;;;;;;;19.75;17.65;;;;;;;15.66;90.80;101331.44;5020032;28;20029;-67
2022/06/26 05:22:48;;;;;;;20.27;18.10;;;;;;;15.51;90.76;101322.41;5023631;28;20191;-67
2022/06/26 05:25:13;;;;;;;19.33;17.33;;;;;;;15.57;90.81;101337.50;5024701;28;20033;-69
2022/06/26 05:27:38;;;;;;;19.33;17.33;;;;;;;15.67;90.71;101333.09;5026337;28;20032;-67
2022/06/26 05:30:04;;;;;;;19.90;17.80;;;;;;;15.66;91.20;101336.66;5023353;28;20025;-68
2022/06/26 05:32:29;;;;;;;18.70;16.65;;;;;;;15.79;89.79;101342.38;5025363;28;20108;-69
2022/06/26 05:34:55;;;;;;;19.00;17.00;;;;;;;15.73;89.65;101322.03;5023854;28;20029;-67
2022/06/26 05:37:20;;;;;;;18.27;16.38;;;;;;;15.69;90.59;101341.59;5025327;28;20475;-68
2022/06/26 05:39:45;;;;;;;16.58;14.88;;;;;;;15.83;89.54;101340.28;5023956;28;20444;-68
2022/06/26 05:42:11;;;;;;;17.63;15.77;;;;;;;15.76;89.83;101347.88;5026206;28;20381;-68
2022/06/26 05:44:36;;;;;;;16.95;15.20;;;;;;;15.76;90.17;101347.88;5024712;28;20025;-67
2022/06/26 05:47:02;;;;;;;15.38;13.85;;;;;;;15.82;89.81;101349.91;5019685;28;20029;-69
2022/06/26 05:49:28;;;;;;;15.88;14.25;;;;;;;15.82;89.45;101351.69;5025412;28;20029;-68
2022/06/26 05:51:53;;;;;;;15.75;14.18;;;;;;;15.90;89.57;101350.00;5024554;28;21581;-67
2022/06/26 05:54:20;;;;;;;15.45;13.23;;;;;;;15.96;89.25;101355.63;5025508;28;20067;-67
2022/06/26 05:56:45;;;;;;;14.20;12.80;;;;;;;16.02;88.09;101365.50;5023059;28;20077;-68
2022/06/26 05:59:11;;;;;;;16.23;12.77;;;;;;;16.07;88.74;101365.91;5012058;28;20037;-67
2022/06/26 06:01:36;;;;;;;14.00;12.30;;;;;;;15.98;88.54;101369.38;4999710;28;20489;-67
2022/06/26 06:04:02;;;;;;;13.50;11.93;;;;;;;16.13;87.52;101375.75;4980799;28;20026;-68
2022/06/26 06:06:28;;;;;;;13.50;12.00;;;;;;;16.08;87.84;101385.84;4983833;28;20056;-68
2022/06/26 06:08:53;;;;;;;13.00;11.45;;;;;;;16.02;87.25;101392.50;4988552;28;20112;-68
2022/06/26 06:11:19;;;;;;;13.18;11.77;;;;;;;16.03;88.32;101382.84;4985611;28;20037;-69
2022/06/26 06:13:44;;;;;;;13.45;11.07;;;;;;;16.10;87.55;101391.75;4987377;28;20552;-68
2022/06/26 06:16:10;;;;;;;13.30;11.70;;;;;;;16.17;88.25;101404.13;4988417;28;20831;-71
2022/06/26 06:18:35;;;;;;;12.10;10.55;;;;;;;16.22;87.10;101385.34;4986616;28;20073;-68
2022/06/26 06:21:01;;;;;;;12.18;10.75;;;;;;;16.21;85.90;101404.63;4992101;28;20034;-68
2022/06/26 06:23:26;;;;;;;13.35;10.38;;;;;;;16.38;85.65;101401.19;4991503;28;20379;-68
2022/06/26 06:25:52;;;;;;;11.88;10.15;;;;;;;16.57;86.13;101399.41;4990179;28;20034;-68
2022/06/26 06:28:18;;;;;;;11.68;10.48;;;;;;;16.64;86.46;101410.94;4986193;28;20455;-71
2022/06/26 06:30:44;;;;;;;12.40;11.10;;;;;;;16.69;85.06;101421.81;4996028;28;20034;-68
2022/06/26 06:33:09;;;;;;;11.70;10.27;;;;;;;16.68;86.08;101422.75;4994264;28;20025;-70
2022/06/26 06:35:36;;;;;;;13.32;10.23;;;;;;;16.77;84.81;101411.41;4996874;28;20040;-68
2022/06/26 06:38:01;;;;;;;10.75;9.55;;;;;;;16.91;84.17;101413.47;4989984;28;21470;-69
2022/06/26 06:40:27;;;;;;;12.73;9.57;;;;;;;16.89;84.21;101399.72;4993189;28;20455;-68
2022/06/26 06:42:52;;;;;;;11.88;8.80;;;;;;;16.96;84.05;101411.22;4994899;28;20025;-68
2022/06/26 06:45:17;;;;;;;10.90;8.73;;;;;;;16.93;82.64;101390.59;4992679;28;20030;-69
2022/06/26 06:47:43;;;;;;;9.60;8.60;;;;;;;17.01;82.27;101408.16;4986247;28;20538;-68
2022/06/26 06:50:08;;;;;;;11.38;8.38;;;;;;;16.97;83.48;101401.56;4994846;28;20081;-69
2022/06/26 06:52:34;;;;;;;10.38;7.82;;;;;;;17.05;83.77;101413.94;4993497;28;20100;-68
2022/06/26 06:55:01;;;;;;;10.07;7.82;;;;;;;17.15;83.33;101420.72;5006163;28;20026;-69
2022/06/26 06:57:26;;;;;;;9.50;7.88;;;;;;;17.08;83.60;101429.31;5005308;28;20072;-68
2022/06/26 06:59:51;;;;;;;11.15;8.65;;;;;;;17.17;82.95;101434.47;4998822;28;20418;-68
2022/06/26 07:02:17;;;;;;;9.77;8.18;;;;;;;17.20;83.23;101428.09;4993714;28;20109;-70
2022/06/26 07:04:42;;;;;;;11.45;8.75;;;;;;;17.10;84.09;101416.91;4994237;28;20594;-68
2022/06/26 07:07:07;;;;;;;11.25;8.20;;;;;;;17.23;83.51;101444.34;4989949;28;20455;-68
2022/06/26 07:09:33;;;;;;;12.80;8.73;;;;;;;17.17;82.91;101449.38;4991473;28;20045;-68
2022/06/26 07:11:58;;;;;;;11.13;8.77;;;;;;;17.31;83.53;101456.69;4988507;28;20022;-68
2022/06/26 07:14:24;;;;;;;10.23;9.13;;;;;;;17.32;83.08;101460.97;4995047;28;20385;-68
2022/06/26 07:16:50;;;;;;;11.88;8.98;;;;;;;17.41;83.49;101462.66;5000300;28;20493;-68
2022/06/26 07:19:15;;;;;;;11.35;9.35;;;;;;;17.50;82.61;101482.72;4993709;28;20022;-70
2022/06/26 07:21:43;;;;;;;13.23;10.38;;;;;;;17.61;82.37;101483.44;4993705;28;20038;-70
2022/06/26 07:24:12;;;;;;;11.18;9.75;;;;;;;17.52;81.84;101474.69;4991171;28;20022;-68
2022/06/26 07:26:38;;;;;;;11.20;9.45;;;;;;;17.59;81.50;101480.16;4998754;28;20022;-69
2022/06/26 07:29:05;;;;;;;11.50;8.75;;;;;;;17.73;81.71;101482.25;4991392;28;20069;-69
2022/06/26 07:31:30;;;;;;;10.48;8.35;;;;;;;17.57;81.15;101455.88;4989884;28;20055;-69
2022/06/26 07:34:15;;;;;;;9.60;7.95;;;;;;;17.83;80.12;101492.59;4988681;28;20466;-68
2022/06/26 07:36:42;;;;;;;9.48;7.95;;;;;;;17.92;79.67;101496.94;4986027;28;20524;-69
2022/06/26 07:39:10;;;;;;;9.65;8.50;;;;;;;17.90;80.04;101493.66;4990600;28;20151;-68
2022/06/26 07:41:35;;;;;;;11.03;8.80;;;;;;;18.03;78.73;101483.53;5002501;28;20446;-69
2022/06/26 07:44:00;;;;;;;9.70;7.80;;;;;;;18.13;79.41;101488.66;4991771;28;20105;-69
2022/06/26 07:46:26;;;;;;;9.43;7.47;;;;;;;18.18;78.44;101481.09;4988042;28;20026;-68
2022/06/26 07:48:51;;;;;;;8.88;7.05;;;;;;;18.10;79.16;101488.97;4988464;28;20611;-69
2022/06/26 07:51:17;;;;;;;8.68;7.40;;;;;;;18.18;79.57;101491.59;4989355;28;20076;-68
2022/06/26 07:53:42;;;;;;;9.57;7.15;;;;;;;18.04;77.92;101491.22;4996745;28;20367;-68
2022/06/26 07:56:08;;;;;;;9.40;7.00;;;;;;;18.03;78.47;101504.53;5000038;28;20458;-68
2022/06/26 07:58:33;;;;;;;8.25;6.70;;;;;;;17.99;78.04;101493.50;4999155;28;20471;-67
2022/06/26 08:00:58;;;;;;;9.30;7.35;;;;;;;18.22;78.63;101500.81;4999600;28;20497;-69
2022/06/26 08:03:24;;;;;;;9.00;7.20;;;;;;;18.10;78.43;101486.34;4998398;28;20118;-67
2022/06/26 08:05:50;;;;;;;8.98;6.20;;;;;;;18.17;78.24;101489.97;4987218;28;20034;-68
2022/06/26 08:08:15;;;;;;;8.13;6.03;;;;;;;18.33;77.36;101511.03;4995078;28;20040;-69
2022/06/26 08:10:41;;;;;;;8.88;6.90;;;;;;;18.27;78.38;101507.25;4999855;28;20080;-68
2022/06/26 08:13:08;;;;;;;8.98;7.18;;;;;;;18.34;78.08;101512.69;4988851;28;20395;-68
2022/06/26 08:15:35;;;;;;;9.50;7.18;;;;;;;18.35;79.05;101509.09;4990907;28;20038;-68
2022/06/26 08:18:01;;;;;;;10.63;7.18;;;;;;;18.30;77.73;101508.75;4989308;28;20064;-68
2022/06/26 08:20:26;;;;;;;8.43;6.07;;;;;;;18.31;77.35;101518.25;4990413;28;20053;-68
2022/06/26 08:22:51;;;;;;;7.75;5.80;;;;;;;18.43;75.90;101524.03;4988851;28;20080;-68
2022/06/26 08:25:17;;;;;;;7.15;5.63;;;;;;;18.40;75.18;101522.53;4995041;28;20369;-68
2022/06/26 08:27:43;;;;;;;9.02;5.75;;;;;;;18.51;75.20;101522.25;4994794;28;20370;-67
2022/06/26 08:30:09;;;;;;;8.30;5.80;;;;;;;18.48;76.17;101525.22;4991394;28;20079;-68
2022/06/26 08:32:35;;;;;;;7.93;5.97;;;;;;;18.42;76.37;101515.34;4996466;28;20030;-68
2022/06/26 08:35:01;;;;;;;8.40;6.30;;;;;;;18.42;75.07;101515.34;4998304;28;20044;-68
2022/06/26 08:37:27;;;;;;;7.95;5.65;;;;;;;18.40;75.46;101504.16;4998389;28;20052;-68
2022/06/26 08:39:52;;;;;;;9.20;6.60;;;;;;;18.53;75.87;101528.19;5001779;28;20355;-68
2022/06/26 08:42:18;;;;;;;8.30;6.28;;;;;;;18.53;75.01;101530.81;4998710;28;20015;-70
2022/06/26 08:44:45;;;;;;;8.73;6.45;;;;;;;18.42;75.95;101531.09;5001046;28;20060;-68
2022/06/26 08:47:14;;;;;;;8.55;6.78;;;;;;;18.53;73.89;101519.50;4989707;28;20101;-67
2022/06/26 08:49:39;;;;;;;;;;;;;;;18.74;76.28;101532.19;5001249;28;20037;-67
2022/06/26 08:52:08;;;;;;;8.60;5.95;;;;;;;18.63;75.01;101521.94;4989595;28;19926;-67
2022/06/26 08:54:34;;;;;;;8.82;6.18;;;;;;;18.45;74.97;101516.81;4997462;28;20395;-67
2022/06/26 08:56:59;;;;;;;10.05;6.68;;;;;;;18.43;74.40;101514.34;5002178;28;20104;-69
2022/06/26 08:59:25;;;;;;;22.90;7.22;;;;;;;18.52;75.72;101523.91;4991907;28;20030;-67
2022/06/26 09:01:50;;;;;;;8.38;5.50;;;;;;;18.58;74.74;101536.41;5003588;28;20520;-68
2022/06/26 09:04:16;;;;;;;10.07;6.10;;;;;;;18.57;73.26;101529.50;5002564;28;21134;-68
2022/06/26 09:06:43;;;;;;;9.98;6.05;;;;;;;18.58;74.23;101536.41;5002241;28;20037;-68
2022/06/26 09:09:22;;;;;;;8.88;6.05;;;;;;;18.70;73.25;101554.53;5004839;28;20038;-68
2022/06/26 09:11:48;;;;;;;7.35;5.80;;;;;;;18.61;73.65;101550.19;4993811;28;20125;-68
2022/06/26 09:14:15;;;;;;;10.63;6.80;;;;;;;18.61;73.22;101555.47;5003002;28;20041;-68
2022/06/26 09:16:46;;;;;;;9.30;6.20;;;;;;;18.57;74.10;101550.50;4994493;28;20084;-68
2022/06/26 09:19:18;;;;;;;8.20;5.80;;;;;;;18.60;73.14;101538.06;5003045;28;20041;-68
2022/06/26 09:21:44;;;;;;;7.95;6.30;;;;;;;18.63;73.12;101561.38;4990172;28;20053;-68
2022/06/26 09:24:15;;;;;;;9.85;6.45;;;;;;;18.54;73.07;101555.28;4990696;28;20027;-68
2022/06/26 09:26:43;;;;;;;9.90;6.32;;;;;;;18.48;74.28;101548.84;4990083;28;20030;-68
2022/06/26 09:29:19;;;;;;;9.23;5.43;;;;;;;18.60;73.02;101548.56;4991193;28;20025;-68
2022/06/26 09:31:45;;;;;;;8.13;5.85;;;;;;;18.53;74.37;101549.19;4995606;28;20287;-67
2022/06/26 09:34:22;;;;;;;8.85;5.93;;;;;;;18.56;73.65;101554.13;4995964;28;20026;-67
2022/06/26 09:37:05;;;;;;;8.95;5.82;;;;;;;18.65;72.93;101535.78;4991631;28;20092;-67
2022/06/26 09:39:31;;;;;;;8.32;5.53;;;;;;;18.67;73.21;101536.41;4996180;28;20123;-68
2022/06/26 09:42:02;;;;;;;9.32;6.20;;;;;;;18.67;73.71;101541.69;4991377;28;20050;-69
2022/06/26 09:44:27;;;;;;;8.93;6.32;;;;;;;18.53;71.75;101538.69;4985902;28;20077;-68
2022/06/26 09:46:53;;;;;;;8.48;6.13;;;;;;;18.60;74.60;101553.81;4985746;28;20587;-68
2022/06/26 09:49:19;;;;;;;9.63;6.50;;;;;;;18.57;72.16;101558.38;4989671;28;20041;-67
2022/06/26 09:51:44;;;;;;;10.38;6.32;;;;;;;18.60;72.01;101533.63;4983184;28;20360;-69
2022/06/26 09:54:10;;;;;;;9.57;6.22;;;;;;;18.70;72.75;101533.53;4990908;28;20028;-68
2022/06/26 09:56:35;;;;;;;10.90;6.10;;;;;;;18.80;70.78;101547.31;4998682;28;20037;-70
2022/06/26 09:59:02;;;;;;;7.53;5.40;;;;;;;18.65;71.92;101546.28;4995399;28;20041;-68
2022/06/26 10:07:01;;;;;;;9.40;6.65;;;;;;;18.78;71.59;101536.16;4988322;28;20517;-68
2022/06/26 10:09:28;;;;;;;8.80;6.13;;;;;;;18.84;71.86;101552.09;4989575;28;20030;-68
2022/06/26 10:11:56;;;;;;;7.57;4.90;;;;;;;18.99;70.47;101554.91;4994521;28;20482;-71
2022/06/26 10:14:21;;;;;;;10.57;5.13;;;;;;;18.89;69.53;101554.25;4993898;28;20033;-68
2022/06/26 10:16:56;;;;;;;7.30;4.40;;;;;;;18.96;71.01;101555.22;5005577;28;20495;-68
2022/06/26 10:19:57;;;;;;;8.23;5.65;;;;;;;19.10;71.05;101572.19;4987562;28;20025;-70
2022/06/26 10:22:22;;;;;;;8.73;5.55;;;;;;;19.07;68.35;101573.31;5000715;28;20137;-68
2022/06/26 10:24:56;;;;;;;9.30;5.93;;;;;;;19.10;68.09;101573.00;4988251;28;20101;-68
2022/06/26 10:27:30;;;;;;;8.43;4.65;;;;;;;19.19;68.66;101570.38;4989084;28;20053;-70
2022/06/26 10:30:16;;;;;;;7.72;4.80;;;;;;;19.28;69.41;101574.66;5004743;28;20121;-69
2022/06/26 10:32:43;;;;;;;8.00;4.88;;;;;;;19.08;67.38;101580.22;5009940;28;20034;-68
2022/06/26 10:35:09;;;;;;;7.70;5.13;;;;;;;19.26;68.09;101579.25;4997874;28;20038;-68
2022/06/26 10:37:45;;;;;;;10.00;5.40;;;;;;;19.18;67.75;101579.25;4990944;28;20031;-68
2022/06/26 10:43:11;;;;;;;10.27;7.65;;;;;;;19.20;68.14;101596.50;4995398;28;20537;-70
2022/06/26 10:45:39;;;;;;;7.80;5.60;;;;;;;19.18;66.97;101582.72;5004726;28;20033;-68
2022/06/26 10:48:25;;;;;;;7.80;5.15;;;;;;;19.20;66.61;101585.16;5001742;28;20034;-68
2022/06/26 10:51:02;;;;;;;9.45;5.05;;;;;;;19.19;67.19;101581.72;5004541;28;20045;-68
2022/06/26 10:53:36;;;;;;;7.13;5.03;;;;;;;19.26;68.19;101579.25;4994116;28;20596;-69
2022/06/26 10:56:06;;;;;;;7.72;5.03;;;;;;;19.23;66.59;101588.31;5008274;28;20104;-68
2022/06/26 10:58:44;;;;;;;8.02;5.70;;;;;;;19.35;67.75;101591.44;5008731;28;20034;-70
2022/06/26 11:01:11;;;;;;;;;;;;;;;19.47;68.69;101581.41;5007373;28;20034;-69
2022/06/26 11:03:38;;;;;;;9.13;5.90;;;;;;;19.25;65.86;101586.31;5003545;28;19925;-69
2022/06/26 11:06:08;;;;;;;9.77;7.37;;;;;;;19.23;66.18;101593.56;5007209;28;20026;-68
2022/06/26 11:08:33;;;;;;;9.32;5.25;;;;;;;19.23;66.41;101587.47;4999732;28;20445;-68
2022/06/26 11:11:14;;;;;;;7.53;5.43;;;;;;;19.25;67.98;101585.50;5000266;28;20477;-68
2022/06/26 11:14:01;;;;;;;9.02;6.07;;;;;;;19.38;68.32;101580.56;4994332;28;20061;-69
2022/06/26 11:16:43;;;;;;;8.95;6.20;;;;;;;19.46;68.59;101588.47;4997657;28;20116;-68
2022/06/26 11:19:22;;;;;;;9.25;5.28;;;;;;;19.58;68.81;101592.44;5002019;28;20030;-68
2022/06/26 11:21:48;;;;;;;9.30;5.90;;;;;;;19.53;67.69;101580.75;5003510;28;20124;-68
2022/06/26 11:24:13;;;;;;;7.78;4.55;;;;;;;19.52;66.05;101582.56;5002937;28;20546;-71
2022/06/26 11:26:39;;;;;;;6.80;4.03;;;;;;;19.50;66.36;101573.19;4992064;28;20425;-68
2022/06/26 11:29:08;;;;;;;5.78;3.80;;;;;;;19.56;65.12;101583.88;4999665;28;20038;-68